Time;durP1;ratioP1;P1;durP2;ratioP2;P2;SDS_P1;SDS_P2;PMS_P1;PMS_P2;Temp;Humidity;BMP_temperature;BMP_pressure;BME280_temperature;BME280_humidity;BME280_pressure;Samples;Min_cycle;Max_cycle;Signal;HPM_P1;HPM_P2
2022/10/08 00:00:21;;;;;;;6.43;1.70;;;13.70;99.90;;;;;;4972932;28;20352;-81
2022/10/08 00:02:47;;;;;;;5.63;1.58;;;13.70;99.90;;;;;;4970341;28;20018;-81
2022/10/08 00:05:14;;;;;;;5.68;1.48;;;13.70;99.90;;;;;;4972114;28;20082;-81
2022/10/08 00:07:44;;;;;;;6.65;1.33;;;13.70;99.90;;;;;;4973777;28;20026;-82
2022/10/08 00:10:17;;;;;;;6.95;1.50;;;13.70;99.90;;;;;;4997341;28;20057;-81
2022/10/08 00:12:46;;;;;;;;;;;13.80;99.90;;;;;;4990378;28;20027;-79
2022/10/08 00:15:15;;;;;;;5.40;1.50;;;13.70;99.90;;;;;;4988419;28;19917;-81
2022/10/08 00:17:53;;;;;;;5.47;1.67;;;13.80;99.90;;;;;;4988656;28;20023;-81
2022/10/08 00:20:27;;;;;;;8.10;1.80;;;13.80;99.90;;;;;;4976822;28;20039;-82
2022/10/08 00:23:00;;;;;;;7.78;1.73;;;13.80;99.90;;;;;;4976346;28;20030;-81
2022/10/08 00:25:47;;;;;;;5.70;1.45;;;13.80;99.90;;;;;;4970647;28;20023;-81
2022/10/08 00:28:21;;;;;;;5.32;1.40;;;13.80;99.90;;;;;;4963562;28;20448;-80
2022/10/08 00:30:51;;;;;;;;;;;13.80;99.90;;;;;;4961452;28;20035;-81
2022/10/08 00:33:26;;;;;;;6.05;1.33;;;13.80;99.90;;;;;;4974749;28;19915;-82
2022/10/08 00:35:55;;;;;;;7.75;1.83;;;13.90;99.90;;;;;;4978182;28;20031;-81
2022/10/08 00:38:21;;;;;;;5.55;1.85;;;13.90;99.90;;;;;;4989719;28;20118;-82
2022/10/08 00:40:53;;;;;;;8.10;2.08;;;13.90;99.90;;;;;;4989932;28;20106;-80
2022/10/08 00:43:38;;;;;;;3.83;1.10;;;13.90;99.90;;;;;;4963127;28;20110;-80
2022/10/08 00:46:05;;;;;;;5.43;1.67;;;13.90;99.90;;;;;;4963208;28;20370;-80
2022/10/08 00:48:32;;;;;;;6.40;2.10;;;13.90;99.90;;;;;;4974356;28;20053;-80
2022/10/08 00:50:58;;;;;;;5.70;1.70;;;13.90;99.90;;;;;;4973625;28;20027;-80
2022/10/08 00:53:26;;;;;;;5.10;1.38;;;13.90;99.90;;;;;;4975019;28;20463;-80
2022/10/08 00:55:57;;;;;;;5.68;1.60;;;13.90;99.90;;;;;;4972610;28;20050;-81
2022/10/08 00:58:28;;;;;;;8.52;2.13;;;13.90;99.90;;;;;;4969748;28;20031;-81
2022/10/08 01:00:58;;;;;;;5.80;2.22;;;13.80;99.90;;;;;;4965175;28;20022;-81
2022/10/08 01:03:24;;;;;;;6.15;1.58;;;13.70;99.90;;;;;;4978112;28;20030;-81
2022/10/08 01:06:05;;;;;;;3.75;1.55;;;13.60;99.90;;;;;;4977278;28;20065;-81
2022/10/08 01:08:47;;;;;;;6.57;2.13;;;13.50;99.90;;;;;;4973951;28;20042;-81
2022/10/08 01:11:29;;;;;;;8.48;2.22;;;13.40;99.90;;;;;;4976277;28;20034;-82
2022/10/08 01:14:30;;;;;;;5.15;1.73;;;13.30;99.90;;;;;;4977133;28;20470;-82
2022/10/08 01:17:25;;;;;;;5.55;1.92;;;13.20;99.90;;;;;;4979080;28;20030;-83
2022/10/08 01:20:09;;;;;;;5.80;1.90;;;13.10;99.90;;;;;;4985694;28;20035;-83
2022/10/08 01:22:55;;;;;;;6.32;2.15;;;12.90;99.90;;;;;;4989324;28;20041;-82
2022/10/08 01:25:36;;;;;;;4.68;1.63;;;12.80;99.90;;;;;;4978196;28;20092;-81
2022/10/08 01:28:23;;;;;;;7.38;1.70;;;12.80;99.90;;;;;;4988741;28;20471;-83
2022/10/08 01:31:07;;;;;;;6.28;2.22;;;12.70;99.90;;;;;;4976593;28;20475;-81
2022/10/08 01:34:03;;;;;;;3.55;1.40;;;12.70;99.90;;;;;;4975354;28;20034;-81
2022/10/08 01:36:37;;;;;;;4.25;1.60;;;12.70;99.90;;;;;;4962500;28;20034;-81
2022/10/08 01:39:10;;;;;;;4.10;1.33;;;12.70;99.90;;;;;;4976429;28;20418;-82
2022/10/08 01:41:45;;;;;;;5.93;1.55;;;12.70;99.90;;;;;;4960808;28;20039;-82
2022/10/08 01:44:22;;;;;;;3.13;1.30;;;12.70;99.90;;;;;;4960949;28;20039;-81
2022/10/08 01:46:50;;;;;;;4.07;1.42;;;12.70;99.90;;;;;;4976245;28;20035;-82
2022/10/08 01:49:21;;;;;;;2.10;0.85;;;12.80;99.90;;;;;;4976309;28;20019;-82
2022/10/08 01:51:52;;;;;;;4.30;1.30;;;12.70;99.90;;;;;;4976167;28;20073;-82
2022/10/08 01:54:21;;;;;;;3.25;1.20;;;12.80;99.90;;;;;;4976364;28;20497;-82
2022/10/08 01:56:51;;;;;;;6.30;1.85;;;12.80;99.90;;;;;;4976915;28;20029;-81
2022/10/08 01:59:32;;;;;;;3.22;1.52;;;12.80;99.90;;;;;;4978480;28;20023;-79
2022/10/08 02:01:58;;;;;;;6.30;2.10;;;12.80;99.90;;;;;;4988195;28;20034;-80
2022/10/08 02:04:32;;;;;;;6.10;1.95;;;12.70;99.90;;;;;;4998417;28;20041;-80
2022/10/08 02:07:20;;;;;;;5.18;1.98;;;12.60;99.90;;;;;;4978352;28;20027;-81
2022/10/08 02:09:51;;;;;;;4.22;1.50;;;12.50;99.90;;;;;;4961231;28;20038;-80
2022/10/08 02:12:17;;;;;;;7.25;2.60;;;12.50;99.90;;;;;;4976553;28;20038;-80
2022/10/08 02:14:52;;;;;;;5.07;2.40;;;12.40;99.90;;;;;;4977184;28;20126;-79
2022/10/08 02:17:27;;;;;;;4.45;2.03;;;12.40;99.90;;;;;;4976332;28;20058;-80
2022/10/08 02:20:01;;;;;;;5.00;2.25;;;12.40;99.90;;;;;;4977082;28;20462;-79
2022/10/08 02:22:59;;;;;;;3.20;1.83;;;12.40;99.90;;;;;;4975955;28;20062;-80
2022/10/08 02:25:39;;;;;;;4.20;2.03;;;12.30;99.90;;;;;;4981307;28;20115;-80
2022/10/08 02:28:14;;;;;;;4.35;2.00;;;12.40;99.90;;;;;;4966535;28;20109;-80
2022/10/08 02:30:53;;;;;;;3.70;1.83;;;12.40;99.90;;;;;;4975409;28;20039;-80
2022/10/08 02:33:52;;;;;;;4.15;2.00;;;12.40;99.90;;;;;;4979640;28;20118;-81
2022/10/08 02:36:25;;;;;;;4.25;1.95;;;12.40;99.90;;;;;;4969122;28;20023;-78
2022/10/08 02:38:54;;;;;;;4.33;2.63;;;12.40;99.90;;;;;;4975579;28;20050;-79
2022/10/08 02:41:23;;;;;;;3.88;1.80;;;12.40;99.90;;;;;;4975352;28;20050;-78
2022/10/08 02:43:51;;;;;;;5.32;2.42;;;12.40;99.90;;;;;;4986353;28;20062;-80
2022/10/08 02:46:20;;;;;;;5.25;2.63;;;12.40;99.90;;;;;;4983660;28;20031;-80
2022/10/08 02:48:58;;;;;;;6.28;2.63;;;12.30;99.90;;;;;;4975206;28;20031;-80
2022/10/08 02:51:27;;;;;;;5.10;2.13;;;12.30;99.90;;;;;;4963329;28;20127;-79
2022/10/08 02:53:57;;;;;;;5.53;2.40;;;12.30;99.90;;;;;;4973625;28;20034;-81
2022/10/08 02:56:40;;;;;;;5.75;2.60;;;12.30;99.90;;;;;;4980718;28;20119;-80
2022/10/08 02:59:06;;;;;;;5.13;2.88;;;12.30;99.90;;;;;;4974620;28;20026;-79
2022/10/08 03:01:31;;;;;;;4.35;1.92;;;12.30;99.90;;;;;;4976106;28;20090;-80
2022/10/08 03:04:04;;;;;;;3.28;1.67;;;12.20;99.90;;;;;;4974652;28;20050;-80
2022/10/08 03:06:31;;;;;;;6.47;2.42;;;12.20;99.90;;;;;;4976547;28;20109;-81
2022/10/08 03:08:59;;;;;;;5.00;3.20;;;12.20;99.90;;;;;;4974977;28;20026;-81
2022/10/08 03:11:28;;;;;;;3.72;1.65;;;12.20;99.90;;;;;;4975002;28;20033;-81
2022/10/08 03:13:57;;;;;;;6.53;2.40;;;12.20;99.90;;;;;;4974875;28;20380;-81
2022/10/08 03:16:29;;;;;;;5.35;2.67;;;12.20;99.90;;;;;;4974769;28;20118;-81
2022/10/08 03:18:57;;;;;;;6.20;2.30;;;12.10;99.90;;;;;;4973905;28;20033;-81
2022/10/08 03:21:26;;;;;;;4.43;2.50;;;12.10;99.90;;;;;;4975650;28;20475;-81
2022/10/08 03:23:52;;;;;;;4.65;2.28;;;12.10;99.90;;;;;;4958958;28;20442;-81
2022/10/08 03:26:18;;;;;;;4.95;1.83;;;12.10;99.90;;;;;;4974435;28;20023;-82
2022/10/08 03:28:44;;;;;;;4.05;1.92;;;12.10;99.90;;;;;;4974747;28;20074;-82
2022/10/08 03:31:10;;;;;;;3.45;1.65;;;12.20;99.90;;;;;;4971168;28;20483;-81
2022/10/08 03:33:36;;;;;;;3.58;1.50;;;12.10;99.90;;;;;;4959969;28;20042;-81
2022/10/08 03:36:02;;;;;;;4.25;1.80;;;12.10;99.90;;;;;;4966271;28;20054;-80
2022/10/08 03:38:28;;;;;;;3.25;1.60;;;12.10;99.90;;;;;;4974256;28;20030;-80
2022/10/08 03:40:57;;;;;;;5.22;1.63;;;12.10;99.90;;;;;;4990450;28;20074;-81
2022/10/08 03:43:28;;;;;;;4.03;1.52;;;12.00;99.90;;;;;;4974260;28;20035;-81
2022/10/08 03:45:55;;;;;;;3.10;1.30;;;12.10;99.90;;;;;;4974477;28;20022;-81
2022/10/08 03:48:21;;;;;;;2.85;1.48;;;12.00;99.90;;;;;;4974451;28;20061;-80
2022/10/08 03:50:56;;;;;;;3.80;1.50;;;12.00;99.90;;;;;;4987602;28;20023;-79
2022/10/08 03:53:22;;;;;;;2.80;1.50;;;12.00;99.90;;;;;;4989632;28;20019;-82
2022/10/08 03:55:49;;;;;;;3.55;1.88;;;12.00;99.90;;;;;;4986095;28;20022;-80
2022/10/08 03:58:15;;;;;;;5.88;1.52;;;11.90;99.90;;;;;;4942617;28;20055;-80
2022/10/08 04:00:41;;;;;;;3.53;1.67;;;12.00;99.90;;;;;;4974628;28;20042;-80
2022/10/08 04:03:08;;;;;;;4.65;2.22;;;12.00;99.90;;;;;;4958676;28;20057;-80
2022/10/08 04:05:34;;;;;;;3.42;2.08;;;11.90;99.90;;;;;;4974592;28;20100;-80
2022/10/08 04:08:00;;;;;;;4.75;1.77;;;11.90;99.90;;;;;;4974234;28;20026;-81
2022/10/08 04:10:26;;;;;;;3.00;1.42;;;11.90;99.90;;;;;;4990455;28;20376;-80
2022/10/08 04:12:52;;;;;;;4.28;1.77;;;11.90;99.90;;;;;;4974031;28;20039;-80
2022/10/08 04:15:19;;;;;;;3.15;1.70;;;11.90;99.90;;;;;;4973736;28;20394;-80
2022/10/08 04:17:44;;;;;;;3.90;2.00;;;11.90;99.90;;;;;;4973775;28;20113;-81
2022/10/08 04:20:10;;;;;;;2.47;1.58;;;11.80;99.90;;;;;;4974780;28;20485;-81
2022/10/08 04:22:36;;;;;;;5.10;2.22;;;11.80;99.90;;;;;;4974793;28;20038;-82
2022/10/08 04:25:03;;;;;;;4.88;2.00;;;11.70;99.90;;;;;;4974032;28;20023;-82
2022/10/08 04:27:29;;;;;;;4.25;1.80;;;11.70;99.90;;;;;;4973699;28;20038;-82
2022/10/08 04:29:55;;;;;;;3.33;1.60;;;11.70;99.90;;;;;;4977274;28;20379;-82
2022/10/08 04:32:20;;;;;;;2.38;1.30;;;11.70;99.90;;;;;;4994011;28;20027;-81
2022/10/08 04:34:46;;;;;;;4.53;1.88;;;11.80;99.90;;;;;;4966443;28;20035;-82
2022/10/08 04:37:12;;;;;;;3.42;1.85;;;11.80;99.90;;;;;;4977958;28;20455;-82
2022/10/08 04:39:38;;;;;;;4.43;2.00;;;11.80;99.90;;;;;;5000642;28;20055;-82
2022/10/08 04:42:04;;;;;;;2.75;1.48;;;11.80;99.90;;;;;;4985579;28;20459;-81
2022/10/08 04:44:31;;;;;;;4.85;2.17;;;11.80;99.90;;;;;;4978236;28;20050;-82
2022/10/08 04:46:57;;;;;;;5.05;2.20;;;11.90;99.90;;;;;;4993028;28;20050;-82
2022/10/08 04:49:24;;;;;;;5.15;2.30;;;11.90;99.90;;;;;;4978985;28;20062;-81
2022/10/08 04:51:51;;;;;;;3.60;1.90;;;11.90;99.90;;;;;;4977039;28;20045;-81
2022/10/08 04:54:17;;;;;;;3.67;2.10;;;11.90;99.90;;;;;;4986084;28;20367;-80
2022/10/08 04:56:42;;;;;;;2.85;1.80;;;11.90;99.90;;;;;;4971628;28;20093;-80
2022/10/08 04:59:08;;;;;;;4.25;1.65;;;11.90;99.90;;;;;;4977923;28;20025;-81
2022/10/08 05:01:34;;;;;;;3.95;1.70;;;11.90;99.90;;;;;;4977157;28;20390;-80
2022/10/08 05:04:01;;;;;;;5.00;1.98;;;11.90;99.90;;;;;;4976739;28;20042;-80
2022/10/08 05:06:29;;;;;;;5.07;2.60;;;11.90;99.90;;;;;;4976131;28;20030;-80
2022/10/08 05:08:57;;;;;;;3.83;2.22;;;12.00;99.90;;;;;;4975759;28;20034;-81
2022/10/08 05:11:25;;;;;;;5.95;2.30;;;11.90;99.90;;;;;;4977180;28;20046;-81
2022/10/08 05:13:52;;;;;;;3.80;2.03;;;11.90;99.90;;;;;;4975549;28;20047;-81
2022/10/08 05:16:19;;;;;;;4.72;2.10;;;11.90;99.90;;;;;;4975680;28;20042;-81
2022/10/08 05:18:45;;;;;;;3.90;1.90;;;12.00;99.90;;;;;;4975770;28;20026;-80
2022/10/08 05:21:14;;;;;;;4.35;2.50;;;12.00;99.90;;;;;;4975304;28;20031;-81
2022/10/08 05:23:43;;;;;;;4.85;2.47;;;12.00;99.90;;;;;;4959638;28;20389;-82
2022/10/08 05:26:14;;;;;;;3.95;2.28;;;12.00;99.90;;;;;;4975201;28;20031;-80
2022/10/08 05:28:41;;;;;;;4.70;2.47;;;12.00;99.90;;;;;;4975643;28;20057;-81
2022/10/08 05:31:06;;;;;;;5.32;3.10;;;12.00;99.90;;;;;;4975408;28;20026;-81
2022/10/08 05:33:36;;;;;;;4.47;2.80;;;11.90;99.90;;;;;;4971913;28;20024;-81
2022/10/08 05:36:04;;;;;;;6.40;2.78;;;12.00;99.90;;;;;;4967337;28;20027;-81
2022/10/08 05:38:30;;;;;;;4.25;2.17;;;12.00;99.90;;;;;;4977050;28;20023;-80
2022/10/08 05:41:07;;;;;;;5.25;1.83;;;12.00;99.90;;;;;;4990585;28;20371;-81
2022/10/08 05:43:33;;;;;;;4.45;3.00;;;12.00;99.90;;;;;;4997822;28;20019;-81
2022/10/08 05:45:59;;;;;;;4.25;2.72;;;12.00;99.90;;;;;;4978108;28;20027;-82
2022/10/08 05:48:24;;;;;;;5.47;2.22;;;12.00;99.90;;;;;;4977882;28;20110;-80
2022/10/08 05:50:50;;;;;;;5.68;2.63;;;12.00;99.90;;;;;;4975903;28;20031;-82
2022/10/08 05:53:16;;;;;;;4.22;2.45;;;12.00;99.90;;;;;;4976043;28;20479;-81
2022/10/08 05:55:42;;;;;;;5.50;3.30;;;12.00;99.90;;;;;;4975619;28;20023;-81
2022/10/08 05:58:07;;;;;;;5.85;3.17;;;12.00;99.90;;;;;;4991914;28;20027;-81
2022/10/08 06:00:34;;;;;;;6.75;3.65;;;12.00;99.90;;;;;;4976685;28;20090;-81
2022/10/08 06:03:00;;;;;;;6.40;3.47;;;12.00;99.90;;;;;;4976657;28;20034;-81
2022/10/08 06:05:27;;;;;;;5.25;3.30;;;12.00;99.90;;;;;;4920038;28;1145740;-81
2022/10/08 06:07:56;;;;;;;5.65;2.95;;;12.00;99.90;;;;;;4976238;28;20033;-81
2022/10/08 06:10:23;;;;;;;4.55;2.65;;;12.00;99.90;;;;;;4976145;28;20055;-82
2022/10/08 06:12:49;;;;;;;4.32;2.60;;;12.00;99.90;;;;;;4960219;28;20121;-79
2022/10/08 06:15:15;;;;;;;4.50;2.60;;;12.00;99.90;;;;;;4975639;28;20559;-80
2022/10/08 06:17:40;;;;;;;5.40;3.10;;;12.10;99.90;;;;;;4975789;28;20038;-78
2022/10/08 06:20:07;;;;;;;5.93;3.25;;;12.10;99.90;;;;;;4975686;28;20059;-81
2022/10/08 06:22:34;;;;;;;8.93;4.50;;;12.10;99.90;;;;;;4975446;28;20076;-80
2022/10/08 06:25:02;;;;;;;5.72;3.58;;;12.00;99.90;;;;;;4975549;28;20023;-82
2022/10/08 06:27:27;;;;;;;6.57;4.15;;;12.00;99.90;;;;;;4976722;28;20027;-82
2022/10/08 06:29:53;;;;;;;6.25;4.10;;;11.90;99.90;;;;;;4975724;28;20022;-82
2022/10/08 06:32:20;;;;;;;5.93;3.95;;;11.80;99.90;;;;;;4959517;28;20031;-81
2022/10/08 06:34:46;;;;;;;5.30;3.70;;;11.80;99.90;;;;;;4976839;28;20455;-81
2022/10/08 06:37:13;;;;;;;7.43;4.32;;;11.80;99.90;;;;;;4975574;28;20081;-81
2022/10/08 06:39:39;;;;;;;7.25;4.63;;;11.80;99.90;;;;;;4991896;28;20465;-81
2022/10/08 06:42:05;;;;;;;6.80;4.10;;;11.70;99.90;;;;;;4975389;28;20087;-81
2022/10/08 06:44:31;;;;;;;8.07;4.57;;;11.70;99.90;;;;;;4976017;28;20027;-81
2022/10/08 06:46:57;;;;;;;5.60;3.92;;;11.70;99.90;;;;;;4959632;28;20050;-81
2022/10/08 06:49:25;;;;;;;6.93;3.80;;;11.70;99.90;;;;;;4959526;28;20030;-81
2022/10/08 06:51:51;;;;;;;6.60;3.70;;;11.70;99.90;;;;;;4974647;28;20035;-81
2022/10/08 06:54:18;;;;;;;6.32;3.70;;;11.60;99.90;;;;;;4961839;28;20031;-81
2022/10/08 06:56:44;;;;;;;4.53;3.17;;;11.60;99.90;;;;;;4982534;28;20509;-81
2022/10/08 06:59:11;;;;;;;7.53;4.00;;;11.60;99.90;;;;;;4980958;28;20106;-81
2022/10/08 07:01:37;;;;;;;6.93;4.30;;;11.60;99.90;;;;;;4976993;28;20043;-81
2022/10/08 07:04:04;;;;;;;8.70;5.20;;;11.60;99.90;;;;;;4959136;28;20051;-81
2022/10/08 07:06:30;;;;;;;7.30;4.82;;;11.60;99.90;;;;;;4975526;28;20033;-81
2022/10/08 07:08:59;;;;;;;8.20;5.43;;;11.60;99.90;;;;;;4974698;28;20019;-81
2022/10/08 07:11:26;;;;;;;8.18;5.30;;;11.60;99.90;;;;;;4975031;28;20034;-81
2022/10/08 07:13:57;;;;;;;5.85;4.18;;;11.70;99.90;;;;;;4958872;28;20038;-81
2022/10/08 07:16:25;;;;;;;8.32;4.88;;;11.70;99.90;;;;;;4975182;28;20035;-80
2022/10/08 07:18:52;;;;;;;10.73;5.82;;;11.70;99.90;;;;;;4976157;28;20042;-81
2022/10/08 07:21:20;;;;;;;6.78;4.97;;;11.80;99.90;;;;;;4974883;28;20027;-80
2022/10/08 07:23:46;;;;;;;8.98;5.60;;;11.80;99.90;;;;;;4974690;28;20110;-80
2022/10/08 07:26:16;;;;;;;8.77;5.50;;;11.90;99.90;;;;;;4958817;28;20042;-80
2022/10/08 07:28:54;;;;;;;6.80;4.72;;;11.90;99.90;;;;;;4972747;28;20423;-79
2022/10/08 07:31:28;;;;;;;7.85;5.00;;;12.00;99.90;;;;;;4974781;28;20031;-80
2022/10/08 07:34:03;;;;;;;8.68;5.25;;;12.00;99.90;;;;;;4966582;28;20031;-79
2022/10/08 07:36:37;;;;;;;7.97;4.28;;;12.10;99.90;;;;;;4991372;28;20058;-80
2022/10/08 07:39:07;;;;;;;;;;;12.10;99.90;;;;;;4982622;28;20099;-79
2022/10/08 07:41:37;;;;;;;7.95;4.90;;;12.10;99.90;;;;;;4992759;28;19910;-80
2022/10/08 07:44:04;;;;;;;9.55;5.05;;;12.10;99.90;;;;;;4991066;28;20031;-79
2022/10/08 07:46:33;;;;;;;9.20;5.10;;;12.20;99.90;;;;;;4974512;28;20029;-80
2022/10/08 07:49:00;;;;;;;7.57;4.05;;;12.30;99.90;;;;;;4974048;28;20019;-81
2022/10/08 07:51:28;;;;;;;6.40;4.15;;;12.30;99.90;;;;;;4990167;28;20026;-80
2022/10/08 07:53:54;;;;;;;10.25;4.15;;;12.30;99.90;;;;;;4958198;28;20027;-80
2022/10/08 07:56:23;;;;;;;7.68;4.00;;;12.40;99.90;;;;;;4974011;28;20031;-80
2022/10/08 07:58:57;;;;;;;5.88;3.15;;;12.40;99.90;;;;;;4972746;28;20093;-81
2022/10/08 08:01:34;;;;;;;5.85;3.42;;;12.50;99.90;;;;;;4972540;28;20035;-80
2022/10/08 08:04:03;;;;;;;5.43;2.63;;;12.60;99.90;;;;;;4972506;28;20043;-80
2022/10/08 08:06:39;;;;;;;7.13;3.53;;;12.60;99.90;;;;;;4963269;28;20027;-81
2022/10/08 08:09:10;;;;;;;5.97;2.50;;;12.60;99.90;;;;;;4970295;28;20023;-81
2022/10/08 08:11:39;;;;;;;6.70;2.45;;;12.70;99.90;;;;;;4986815;28;20038;-80
2022/10/08 08:14:19;;;;;;;5.07;2.40;;;12.70;99.90;;;;;;4973008;28;20042;-80
2022/10/08 08:16:49;;;;;;;4.10;2.03;;;12.70;99.90;;;;;;4969519;28;20026;-80
2022/10/08 08:19:19;;;;;;;3.63;1.13;;;12.80;99.90;;;;;;4971943;28;20426;-80
2022/10/08 08:21:49;;;;;;;3.58;1.20;;;12.90;99.90;;;;;;4973546;28;20109;-80
2022/10/08 08:24:18;;;;;;;5.03;1.27;;;12.90;99.90;;;;;;4970716;28;20031;-80
2022/10/08 08:26:51;;;;;;;3.60;1.00;;;12.90;99.90;;;;;;4971879;28;20026;-80
2022/10/08 08:29:30;;;;;;;6.35;1.38;;;13.00;99.90;;;;;;4970441;28;20030;-79
2022/10/08 08:31:58;;;;;;;4.53;0.90;;;13.00;99.90;;;;;;4973773;28;20030;-81
2022/10/08 08:34:26;;;;;;;5.63;1.13;;;13.10;99.90;;;;;;4972406;28;20058;-81
2022/10/08 08:37:00;;;;;;;4.32;1.50;;;13.10;99.90;;;;;;4974122;28;20038;-80
2022/10/08 08:39:32;;;;;;;3.40;0.73;;;13.10;99.90;;;;;;4973908;28;20054;-81
2022/10/08 08:42:30;;;;;;;6.10;1.42;;;13.10;99.90;;;;;;4972640;28;20054;-81
2022/10/08 08:45:26;;;;;;;2.83;0.60;;;13.20;99.90;;;;;;4972343;28;20170;-81
2022/10/08 08:48:21;;;;;;;4.38;1.27;;;13.20;99.90;;;;;;4973390;28;20177;-80
2022/10/08 08:50:51;;;;;;;5.22;0.80;;;13.30;99.90;;;;;;4973336;28;20034;-80
2022/10/08 08:53:24;;;;;;;4.35;0.70;;;13.40;99.90;;;;;;4972415;28;20129;-80
2022/10/08 08:55:56;;;;;;;7.07;1.00;;;13.50;99.90;;;;;;4972446;28;20065;-80
2022/10/08 08:58:33;;;;;;;2.77;0.77;;;13.60;99.90;;;;;;4956936;28;20053;-80
2022/10/08 09:01:15;;;;;;;5.32;0.98;;;13.60;99.90;;;;;;4969298;28;20034;-81
2022/10/08 09:03:51;;;;;;;3.15;0.75;;;13.70;99.90;;;;;;4967961;28;20038;-81
2022/10/08 09:06:24;;;;;;;1.30;0.57;;;13.80;99.90;;;;;;4985795;28;20054;-80
2022/10/08 09:09:29;;;;;;;4.03;0.80;;;13.80;99.90;;;;;;4972527;28;20038;-80
2022/10/08 09:11:59;;;;;;;2.90;0.63;;;14.00;99.90;;;;;;4976707;28;20137;-80
2022/10/08 09:14:45;;;;;;;3.92;0.95;;;14.80;99.90;;;;;;4973453;28;20031;-80
2022/10/08 09:17:35;;;;;;;3.38;0.95;;;16.40;99.90;;;;;;4975967;28;20031;-81
2022/10/08 09:20:09;;;;;;;3.88;0.95;;;17.80;99.90;;;;;;4982282;28;20422;-81
2022/10/08 09:22:37;;;;;;;3.13;0.82;;;18.70;99.90;;;;;;4975709;28;20054;-80
2022/10/08 09:25:21;;;;;;;3.25;1.13;;;19.70;99.90;;;;;;4975345;28;20050;-81
2022/10/08 09:27:49;;;;;;;2.75;0.60;;;20.40;99.90;;;;;;4976888;28;20517;-81
2022/10/08 09:30:33;;;;;;;3.92;1.00;;;21.00;99.90;;;;;;4974588;28;20503;-82
2022/10/08 09:33:17;;;;;;;3.45;0.90;;;21.60;99.90;;;;;;4989784;28;20043;-79
2022/10/08 09:35:49;;;;;;;4.00;0.98;;;22.20;99.90;;;;;;4997148;28;20033;-80
2022/10/08 09:38:28;;;;;;;4.85;0.90;;;22.30;99.90;;;;;;4978767;28;20088;-80
2022/10/08 09:41:05;;;;;;;2.33;0.60;;;22.60;99.90;;;;;;4976085;28;20106;-81
2022/10/08 09:43:33;;;;;;;4.22;0.73;;;22.90;99.90;;;;;;4975723;28;20037;-80
2022/10/08 09:46:31;;;;;;;4.72;0.70;;;22.50;99.90;;;;;;4975281;28;20085;-80
2022/10/08 09:49:28;;;;;;;3.70;1.05;;;21.50;99.90;;;;;;4968306;28;20490;-81
2022/10/08 09:51:56;;;;;;;3.92;0.75;;;20.50;99.90;;;;;;4973364;28;20031;-80
2022/10/08 09:54:26;;;;;;;2.50;0.65;;;19.80;99.90;;;;;;4974487;28;20138;-80
2022/10/08 09:56:56;;;;;;;4.13;0.82;;;20.00;99.90;;;;;;4958147;28;20114;-80
2022/10/08 09:59:26;;;;;;;3.42;0.73;;;20.60;99.90;;;;;;4975236;28;20026;-80
2022/10/08 10:01:52;;;;;;;4.88;0.88;;;20.90;99.90;;;;;;4974066;28;20034;-80
2022/10/08 10:04:49;;;;;;;4.00;0.82;;;20.30;99.90;;;;;;4971362;28;20055;-80
2022/10/08 10:07:15;;;;;;;3.97;1.15;;;19.40;99.90;;;;;;4972813;28;20045;-81
2022/10/08 10:09:44;;;;;;;3.17;0.63;;;18.50;99.90;;;;;;4974250;28;20121;-81
2022/10/08 10:12:25;;;;;;;2.17;0.60;;;18.20;99.90;;;;;;4974076;28;20118;-80
2022/10/08 10:14:56;;;;;;;2.05;0.70;;;17.90;99.90;;;;;;4985189;28;20043;-81
2022/10/08 10:17:37;;;;;;;1.75;0.60;;;17.50;99.90;;;;;;4988209;28;20066;-80
2022/10/08 10:20:30;;;;;;;2.30;0.65;;;17.00;99.90;;;;;;4973328;28;20082;-81
2022/10/08 10:23:24;;;;;;;2.58;0.57;;;16.80;99.90;;;;;;4969036;28;20058;-80
2022/10/08 10:26:17;;;;;;;2.78;0.63;;;18.30;99.90;;;;;;4984717;28;20039;-81
2022/10/08 10:28:56;;;;;;;4.15;1.13;;;20.30;99.90;;;;;;4978853;28;20034;-80
2022/10/08 10:31:42;;;;;;;3.00;0.80;;;20.80;99.90;;;;;;4980210;28;20030;-80
2022/10/08 10:34:20;;;;;;;3.35;0.60;;;20.10;99.90;;;;;;4971998;28;20046;-80
2022/10/08 10:37:02;;;;;;;3.03;0.80;;;19.30;99.90;;;;;;4984122;28;20110;-81
2022/10/08 10:39:47;;;;;;;3.13;0.47;;;18.70;99.90;;;;;;4976500;28;20030;-80
2022/10/08 10:42:32;;;;;;;2.47;0.60;;;18.20;99.90;;;;;;4961876;28;20082;-80
2022/10/08 10:45:12;;;;;;;2.88;0.57;;;17.70;99.90;;;;;;4972586;28;20022;-80
2022/10/08 10:47:38;;;;;;;4.07;0.93;;;17.20;99.90;;;;;;4958223;28;20509;-80
2022/10/08 10:50:11;;;;;;;1.30;0.68;;;16.60;99.90;;;;;;4981625;28;20019;-81
2022/10/08 10:52:57;;;;;;;2.25;0.60;;;16.30;99.90;;;;;;4969100;28;20031;-81
2022/10/08 10:55:31;;;;;;;2.72;0.65;;;15.90;99.90;;;;;;4971173;28;20043;-81
2022/10/08 10:58:11;;;;;;;4.50;1.27;;;15.50;99.90;;;;;;4972958;28;20026;-81
2022/10/08 11:00:58;;;;;;;3.78;0.60;;;15.30;99.90;;;;;;4973752;28;20037;-81
2022/10/08 11:03:45;;;;;;;3.78;1.00;;;15.30;99.90;;;;;;4964092;28;20042;-81
2022/10/08 11:06:48;;;;;;;3.65;1.60;;;15.70;99.90;;;;;;4978681;28;20066;-82
2022/10/08 11:09:42;;;;;;;3.90;1.40;;;16.30;99.90;;;;;;4975624;28;20027;-83
2022/10/08 11:12:10;;;;;;;;;;;18.10;99.90;;;;;;4979926;28;20023;-81
2022/10/08 11:15:05;;;;;;;3.67;1.08;;;19.70;99.90;;;;;;4983423;28;19910;-82
2022/10/08 11:17:55;;;;;;;3.55;1.15;;;21.00;99.90;;;;;;4972420;28;20033;-82
2022/10/08 11:20:39;;;;;;;2.55;0.70;;;21.90;99.90;;;;;;4985945;28;20043;-82
2022/10/08 11:23:27;;;;;;;4.80;1.20;;;22.70;99.90;;;;;;4968674;28;20037;-82
2022/10/08 11:26:08;;;;;;;2.72;0.88;;;23.20;99.90;;;;;;4972209;28;20041;-81
2022/10/08 11:28:52;;;;;;;4.03;0.95;;;23.60;99.90;;;;;;4974666;28;20101;-82
2022/10/08 11:31:39;;;;;;;2.67;0.68;;;23.80;99.90;;;;;;5006171;28;20862;-83
2022/10/08 11:34:33;;;;;;;4.00;0.80;;;24.40;99.90;;;;;;4989157;28;20066;-84
2022/10/08 11:37:02;;;;;;;3.60;0.75;;;24.10;99.90;;;;;;4990145;28;20034;-83
2022/10/08 11:39:58;;;;;;;3.88;0.90;;;23.10;99.90;;;;;;4991651;28;20537;-82
2022/10/08 11:42:30;;;;;;;2.58;0.77;;;21.50;99.90;;;;;;4970111;28;20031;-81
2022/10/08 11:45:21;;;;;;;6.38;1.00;;;20.50;99.90;;;;;;4972771;28;20023;-81
2022/10/08 11:47:51;;;;;;;1.88;0.50;;;21.00;99.90;;;;;;4963717;28;20055;-81
2022/10/08 11:50:37;;;;;;;4.30;1.00;;;22.30;99.90;;;;;;4969717;28;20562;-81
2022/10/08 11:53:08;;;;;;;3.60;0.90;;;23.20;99.90;;;;;;4973666;28;20058;-82
2022/10/08 11:55:36;;;;;;;5.28;1.30;;;23.90;99.90;;;;;;4975576;28;20043;-82
2022/10/08 11:58:05;;;;;;;3.70;0.80;;;23.90;99.90;;;;;;4968631;28;20114;-82
2022/10/08 12:00:37;;;;;;;5.10;1.00;;;24.10;99.90;;;;;;4969850;28;20114;-82
2022/10/08 12:03:06;;;;;;;4.22;0.90;;;24.30;99.90;;;;;;4968345;28;20033;-81
2022/10/08 12:05:44;;;;;;;2.63;0.65;;;25.00;99.90;;;;;;4961489;28;20050;-82
2022/10/08 12:08:30;;;;;;;3.78;0.85;;;25.80;99.90;;;;;;4968048;28;20035;-83
2022/10/08 12:11:32;;;;;;;2.92;0.70;;;26.40;99.90;;;;;;4967114;28;20058;-82
2022/10/08 12:14:10;;;;;;;2.22;0.70;;;26.80;99.90;;;;;;4984671;28;20039;-83
2022/10/08 12:16:47;;;;;;;2.95;0.80;;;26.80;99.80;;;;;;4970551;28;20031;-83
2022/10/08 12:19:34;;;;;;;4.22;0.88;;;27.00;99.30;;;;;;4985063;28;20018;-83
2022/10/08 12:22:16;;;;;;;4.65;0.85;;;27.20;98.90;;;;;;4969877;28;20089;-81
2022/10/08 12:24:48;;;;;;;2.15;0.85;;;27.40;97.40;;;;;;4971260;28;20019;-82
2022/10/08 12:27:16;;;;;;;2.92;0.77;;;27.50;97.90;;;;;;4969106;28;20049;-81
2022/10/08 12:29:57;;;;;;;2.97;0.75;;;27.20;97.20;;;;;;4968887;28;20093;-81
2022/10/08 12:32:43;;;;;;;4.00;0.60;;;26.80;97.30;;;;;;4984056;28;20470;-82
2022/10/08 12:35:34;;;;;;;2.22;0.60;;;27.20;96.30;;;;;;4967225;28;20221;-82
2022/10/08 12:38:18;;;;;;;3.08;1.00;;;27.50;96.20;;;;;;4969464;28;20363;-81
2022/10/08 12:40:49;;;;;;;2.83;0.80;;;27.50;94.20;;;;;;4972218;28;20015;-81
2022/10/08 12:43:56;;;;;;;4.53;1.00;;;27.60;94.10;;;;;;4964380;28;20023;-82
2022/10/08 12:46:37;;;;;;;2.80;0.77;;;27.70;94.00;;;;;;4969274;28;20121;-82
2022/10/08 12:49:40;;;;;;;3.35;0.80;;;27.90;94.10;;;;;;4958451;28;20023;-82
2022/10/08 12:52:26;;;;;;;;;;;27.90;93.90;;;;;;4974653;28;20493;-82
2022/10/08 12:54:55;;;;;;;2.53;0.70;;;27.70;93.80;;;;;;4972644;28;19914;-81
2022/10/08 12:57:26;;;;;;;4.18;0.70;;;27.70;93.60;;;;;;4975422;28;20026;-82
2022/10/08 12:59:53;;;;;;;4.95;0.77;;;27.90;93.30;;;;;;4974931;28;20453;-82
2022/10/08 13:02:24;;;;;;;2.45;0.52;;;28.10;92.50;;;;;;4974452;28;20403;-82
2022/10/08 13:04:50;;;;;;;4.88;0.98;;;28.10;92.10;;;;;;4978198;28;20051;-81
2022/10/08 13:07:31;;;;;;;3.75;0.85;;;27.80;91.70;;;;;;4973033;28;20038;-82
2022/10/08 13:10:00;;;;;;;2.15;0.63;;;28.10;91.90;;;;;;4972546;28;20038;-81
2022/10/08 13:12:26;;;;;;;3.50;0.82;;;28.40;92.30;;;;;;4977323;28;20050;-82
2022/10/08 13:15:04;;;;;;;5.43;0.80;;;28.70;92.00;;;;;;4974197;28;20110;-80
2022/10/08 13:17:33;;;;;;;2.72;0.70;;;28.70;90.90;;;;;;4976017;28;20054;-82
2022/10/08 13:20:22;;;;;;;2.95;0.60;;;28.60;91.10;;;;;;4982713;28;20019;-81